createdAt,value
2018-06-30T00:00:55.086Z,18.10
2018-06-30T00:03:27.870Z,18.20
2018-06-30T00:05:56.437Z,18.10
2018-06-30T00:08:25.024Z,18.00
2018-06-30T00:10:53.604Z,18.00
2018-06-30T00:13:22.189Z,18.00
2018-06-30T00:15:50.751Z,18.00
2018-06-30T00:18:19.316Z,18.10
2018-06-30T00:20:48.486Z,18.00
2018-06-30T00:23:17.080Z,18.00
2018-06-30T00:25:45.652Z,18.00
2018-06-30T00:30:42.480Z,18.00
2018-06-30T00:33:11.036Z,17.90
2018-06-30T00:35:39.589Z,17.90
2018-06-30T00:40:36.556Z,17.90
2018-06-30T00:43:05.909Z,17.80
2018-06-30T00:45:34.669Z,17.80
2018-06-30T00:48:03.226Z,17.80
2018-06-30T00:55:29.125Z,17.80
2018-06-30T00:57:58.338Z,17.80
2018-06-30T01:00:26.942Z,17.70
2018-06-30T01:02:55.605Z,17.70
2018-06-30T01:05:24.197Z,17.60
2018-06-30T01:07:52.766Z,17.50
2018-06-30T01:10:21.317Z,17.40
2018-06-30T01:12:50.372Z,17.40
2018-06-30T01:15:18.963Z,17.40
2018-06-30T01:17:47.516Z,17.30
2018-06-30T01:20:16.207Z,17.30
2018-06-30T01:22:45.317Z,17.30
2018-06-30T01:25:13.893Z,17.30
2018-06-30T01:27:42.435Z,17.30
2018-06-30T01:30:12.194Z,17.20
2018-06-30T01:32:41.760Z,17.30
2018-06-30T01:35:10.889Z,17.20
2018-06-30T01:37:40.084Z,17.10
2018-06-30T01:40:08.665Z,17.10
2018-06-30T01:42:37.587Z,17.20
2018-06-30T01:45:06.565Z,17.20
2018-06-30T01:47:35.796Z,17.20
2018-06-30T01:52:33.012Z,17.20
2018-06-30T01:55:01.574Z,17.10
2018-06-30T01:57:30.149Z,17.10
2018-06-30T01:59:58.698Z,17.10
2018-06-30T02:02:27.298Z,17.00
2018-06-30T02:04:56.409Z,17.00
2018-06-30T02:09:53.726Z,16.90
2018-06-30T02:12:23.505Z,16.80
2018-06-30T02:14:52.655Z,16.70
2018-06-30T02:17:21.245Z,16.60
2018-06-30T02:19:49.790Z,16.70
2018-06-30T02:22:18.388Z,16.60
2018-06-30T02:24:47.691Z,16.60
2018-06-30T02:27:16.232Z,16.60
2018-06-30T02:32:13.044Z,16.60
2018-06-30T02:34:41.652Z,16.50
2018-06-30T02:37:10.184Z,16.60
2018-06-30T02:39:39.432Z,16.50
2018-06-30T02:42:08.441Z,16.60
2018-06-30T02:44:38.654Z,16.50
2018-06-30T02:47:07.797Z,16.50
2018-06-30T02:49:37.740Z,16.50
2018-06-30T02:52:06.312Z,16.50
2018-06-30T02:54:36.281Z,16.50
2018-06-30T02:59:34.073Z,16.50
2018-06-30T03:04:31.670Z,16.50
2018-06-30T03:07:00.202Z,16.50
2018-06-30T03:09:28.803Z,16.40
2018-06-30T03:11:57.986Z,16.40
2018-06-30T03:14:27.077Z,16.40
2018-06-30T03:16:55.641Z,16.40
2018-06-30T03:19:24.174Z,16.50
2018-06-30T03:24:22.034Z,16.40
2018-06-30T03:26:50.665Z,16.40
2018-06-30T03:29:19.980Z,16.40
2018-06-30T03:31:48.547Z,16.30
2018-06-30T03:34:17.097Z,16.30
2018-06-30T03:36:45.890Z,16.30
2018-06-30T03:39:14.451Z,16.30
2018-06-30T03:41:43.056Z,16.20
2018-06-30T03:44:12.825Z,16.20
2018-06-30T03:46:41.414Z,16.20
2018-06-30T03:49:09.963Z,16.20
2018-06-30T03:51:39.369Z,16.10
2018-06-30T03:54:08.573Z,16.20
2018-06-30T03:56:37.728Z,16.20
2018-06-30T03:59:07.850Z,16.30
2018-06-30T04:01:36.400Z,16.20
2018-06-30T04:04:04.953Z,16.30
2018-06-30T04:06:33.534Z,16.30
2018-06-30T04:09:02.951Z,16.30
2018-06-30T04:11:32.681Z,16.30
2018-06-30T04:14:01.206Z,16.30
2018-06-30T04:16:30.270Z,16.30
2018-06-30T04:19:03.257Z,16.30
2018-06-30T04:21:31.845Z,16.40
2018-06-30T04:24:00.960Z,16.40
2018-06-30T04:26:30.648Z,16.30
2018-06-30T04:28:59.255Z,16.20
2018-06-30T04:31:27.818Z,16.30
2018-06-30T04:33:56.925Z,16.30
2018-06-30T04:36:25.718Z,16.30
2018-06-30T04:38:54.302Z,16.40
2018-06-30T04:41:23.479Z,16.40
2018-06-30T04:43:52.165Z,16.50
2018-06-30T04:46:21.160Z,16.60
2018-06-30T04:48:49.969Z,16.60
2018-06-30T04:51:19.130Z,16.70
2018-06-30T04:53:47.735Z,16.70
2018-06-30T04:56:16.319Z,16.80
2018-06-30T04:58:44.953Z,16.80
2018-06-30T05:01:13.513Z,16.80
2018-06-30T05:03:42.121Z,16.90
2018-06-30T05:06:11.249Z,16.90
2018-06-30T05:08:39.850Z,17.00
2018-06-30T05:11:08.484Z,17.40
2018-06-30T05:13:37.077Z,17.90
2018-06-30T05:18:34.184Z,18.50
2018-06-30T05:21:02.766Z,19.00
2018-06-30T05:23:31.457Z,20.10
2018-06-30T05:26:00.128Z,22.10
2018-06-30T05:28:28.638Z,24.20
2018-06-30T05:30:57.308Z,25.90
2018-06-30T05:33:26.088Z,27.20
2018-06-30T05:35:54.631Z,28.40
2018-06-30T05:38:23.226Z,28.60
2018-06-30T05:40:51.797Z,29.70
2018-06-30T05:43:20.353Z,30.20
2018-06-30T05:45:48.965Z,30.70
2018-06-30T05:48:17.565Z,31.20
2018-06-30T05:50:46.178Z,31.40
2018-06-30T05:53:15.044Z,31.20
2018-06-30T05:55:44.188Z,30.70
2018-06-30T05:58:12.808Z,30.40
2018-06-30T06:00:41.484Z,30.00
2018-06-30T06:03:10.077Z,30.40
2018-06-30T06:05:38.688Z,30.50
2018-06-30T06:08:07.305Z,30.70
2018-06-30T06:10:35.889Z,30.70
2018-06-30T06:13:04.514Z,30.70
2018-06-30T06:15:33.139Z,30.90
2018-06-30T06:18:02.340Z,30.90
2018-06-30T06:20:31.091Z,30.20
2018-06-30T06:23:00.614Z,29.70
2018-06-30T06:25:29.581Z,29.20
2018-06-30T06:27:58.210Z,28.00
2018-06-30T06:32:55.791Z,27.30
2018-06-30T06:35:24.347Z,27.00
2018-06-30T06:37:52.959Z,26.90
2018-06-30T06:40:23.513Z,26.30
2018-06-30T06:42:52.136Z,25.90
2018-06-30T06:45:20.687Z,25.40
2018-06-30T06:47:49.270Z,25.50
2018-06-30T06:50:17.837Z,25.20
2018-06-30T06:52:47.046Z,25.20
2018-06-30T06:55:16.212Z,25.20
2018-06-30T07:00:13.638Z,25.30
2018-06-30T07:02:42.261Z,25.00
2018-06-30T07:05:10.821Z,25.10
2018-06-30T07:07:40.154Z,25.10
2018-06-30T07:10:09.234Z,25.00
2018-06-30T07:12:37.806Z,25.00
2018-06-30T07:15:07.137Z,24.90
2018-06-30T07:20:04.025Z,24.80
2018-06-30T07:22:33.841Z,25.10
2018-06-30T07:25:02.434Z,25.10
2018-06-30T07:27:31.045Z,25.30
2018-06-30T07:29:59.649Z,25.60
2018-06-30T07:32:28.208Z,25.50
2018-06-30T07:34:56.797Z,25.60
2018-06-30T07:37:25.606Z,25.60
2018-06-30T07:39:54.225Z,25.50
2018-06-30T07:42:23.629Z,25.40
2018-06-30T07:47:21.357Z,25.20
2018-06-30T07:49:50.000Z,25.30
2018-06-30T07:52:20.112Z,25.40
2018-06-30T07:54:48.468Z,25.50
2018-06-30T07:57:17.075Z,25.30
2018-06-30T07:59:46.513Z,25.50
2018-06-30T08:02:15.125Z,25.70
2018-06-30T08:04:43.679Z,25.70
2018-06-30T08:07:12.306Z,25.60
2018-06-30T08:09:40.881Z,25.60
2018-06-30T08:12:09.498Z,25.50
2018-06-30T08:14:38.593Z,25.30
2018-06-30T08:19:35.434Z,25.30
2018-06-30T08:22:05.048Z,25.50
2018-06-30T08:24:34.257Z,25.50
2018-06-30T08:27:02.877Z,25.60
2018-06-30T08:29:31.595Z,25.60
2018-06-30T08:32:01.273Z,25.60
2018-06-30T08:34:29.830Z,25.60
2018-06-30T08:39:26.642Z,25.40
2018-06-30T08:41:56.791Z,25.50
2018-06-30T08:44:25.386Z,25.50
2018-06-30T08:46:53.974Z,25.80
2018-06-30T08:49:23.031Z,25.80
2018-06-30T08:51:51.619Z,25.90
2018-06-30T08:54:20.269Z,26.00
2018-06-30T08:56:48.873Z,26.00
2018-06-30T08:59:17.483Z,26.10
2018-06-30T09:01:46.120Z,26.10
2018-06-30T09:04:14.727Z,26.10
2018-06-30T09:06:43.344Z,26.20
2018-06-30T09:09:12.406Z,26.10
2018-06-30T09:11:41.993Z,26.00
2018-06-30T09:14:10.626Z,26.10
2018-06-30T09:16:39.494Z,26.30
2018-06-30T09:19:08.123Z,26.30
2018-06-30T09:21:36.681Z,26.30
2018-06-30T09:24:05.890Z,26.30
2018-06-30T09:26:34.422Z,26.20
2018-06-30T09:29:03.053Z,26.30
2018-06-30T09:31:31.650Z,26.30
2018-06-30T09:34:00.248Z,26.30
2018-06-30T09:36:29.108Z,26.30
2018-06-30T09:38:58.001Z,26.40
2018-06-30T09:41:26.773Z,26.40
2018-06-30T09:43:55.426Z,26.40
2018-06-30T09:48:52.233Z,26.50
2018-06-30T09:51:20.869Z,26.40
2018-06-30T09:53:49.448Z,26.40
2018-06-30T09:58:46.943Z,26.70
2018-06-30T10:01:15.537Z,26.70
2018-06-30T10:03:44.139Z,26.80
2018-06-30T10:06:13.063Z,27.00
2018-06-30T10:08:41.664Z,27.10
2018-06-30T10:11:10.563Z,27.10
2018-06-30T10:16:08.240Z,27.10
2018-06-30T10:18:37.161Z,27.10
2018-06-30T10:21:06.286Z,27.00
2018-06-30T10:23:34.911Z,27.10
2018-06-30T10:28:32.331Z,27.10
2018-06-30T10:31:00.938Z,27.10
2018-06-30T10:33:29.557Z,27.10
2018-06-30T10:35:58.145Z,27.00
2018-06-30T10:40:54.974Z,27.00
2018-06-30T10:43:23.584Z,27.10
2018-06-30T10:45:52.138Z,27.10
2018-06-30T10:48:20.722Z,27.00
2018-06-30T10:50:49.305Z,27.10
2018-06-30T10:53:17.932Z,27.20
2018-06-30T10:55:46.469Z,27.40
2018-06-30T10:58:15.089Z,27.50
2018-06-30T11:00:43.687Z,27.40
2018-06-30T11:05:40.504Z,27.50
2018-06-30T11:08:09.132Z,27.60
2018-06-30T11:13:06.193Z,27.70
2018-06-30T11:15:34.758Z,27.50
2018-06-30T11:18:03.369Z,27.70
2018-06-30T11:20:31.961Z,27.80
2018-06-30T11:23:00.560Z,27.80
2018-06-30T11:25:29.169Z,27.80
2018-06-30T11:27:57.796Z,27.40
2018-06-30T11:30:26.410Z,27.50
2018-06-30T11:32:55.163Z,27.60
2018-06-30T11:35:23.787Z,27.70
2018-06-30T11:37:52.540Z,27.70
2018-06-30T11:40:21.108Z,27.70
2018-06-30T11:42:49.664Z,27.80
2018-06-30T11:45:18.250Z,27.90
2018-06-30T11:47:46.814Z,28.10
2018-06-30T11:50:15.430Z,27.90
2018-06-30T11:52:44.009Z,27.80
2018-06-30T11:55:12.613Z,27.80
2018-06-30T11:57:41.161Z,27.80
2018-06-30T12:00:10.189Z,27.80
2018-06-30T12:02:38.750Z,28.00
2018-06-30T12:05:08.327Z,28.20
2018-06-30T12:07:37.525Z,28.10
2018-06-30T12:10:06.369Z,28.10
2018-06-30T12:12:35.253Z,28.20
2018-06-30T12:15:04.132Z,28.10
2018-06-30T12:17:32.710Z,28.10
2018-06-30T12:20:01.263Z,28.00
2018-06-30T12:24:58.094Z,28.10
2018-06-30T12:27:26.708Z,28.10
2018-06-30T12:32:24.244Z,28.10
2018-06-30T12:34:52.793Z,28.20
2018-06-30T12:37:21.374Z,28.40
2018-06-30T12:39:49.938Z,28.30
2018-06-30T12:47:15.022Z,28.40
2018-06-30T12:49:43.609Z,28.60
2018-06-30T12:52:12.196Z,28.60
2018-06-30T12:54:40.914Z,28.50
2018-06-30T12:57:09.376Z,28.60
2018-06-30T12:59:37.956Z,28.60
2018-06-30T13:02:06.571Z,28.50
2018-06-30T13:07:03.464Z,28.50
2018-06-30T13:09:32.002Z,28.50
2018-06-30T13:12:00.683Z,28.40
2018-06-30T13:14:29.289Z,28.50
2018-06-30T13:19:26.114Z,28.60
2018-06-30T13:21:55.383Z,28.80
2018-06-30T13:24:23.985Z,28.50
2018-06-30T13:26:52.553Z,28.40
2018-06-30T13:29:21.363Z,28.40
2018-06-30T13:31:49.967Z,28.30
2018-06-30T13:34:18.665Z,28.40
2018-06-30T13:36:47.763Z,28.50
2018-06-30T13:39:16.386Z,28.40
2018-06-30T13:41:44.948Z,28.40
2018-06-30T13:49:10.585Z,28.40
2018-06-30T13:51:40.137Z,28.50
2018-06-30T13:54:08.986Z,28.50
2018-06-30T13:56:37.850Z,28.50
2018-06-30T13:59:06.515Z,28.60
2018-06-30T14:01:35.094Z,28.50
2018-06-30T14:04:03.793Z,28.40
2018-06-30T14:06:32.426Z,28.40
2018-06-30T14:09:01.051Z,28.50
2018-06-30T14:11:29.645Z,28.60
2018-06-30T14:13:58.250Z,28.70
2018-06-30T14:16:26.847Z,28.80
2018-06-30T14:18:55.452Z,28.90
2018-06-30T14:23:52.287Z,29.00
2018-06-30T14:26:20.928Z,28.90
2018-06-30T14:28:49.484Z,28.90
2018-06-30T14:33:46.932Z,28.70
2018-06-30T14:36:15.542Z,28.60
2018-06-30T14:38:44.100Z,28.70
2018-06-30T14:41:12.674Z,28.80
2018-06-30T14:43:41.227Z,28.80
2018-06-30T14:46:09.837Z,28.80
2018-06-30T14:48:38.452Z,28.70
2018-06-30T14:51:07.090Z,28.60
2018-06-30T14:53:35.706Z,28.70
2018-06-30T14:56:04.390Z,28.70
2018-06-30T14:58:32.993Z,28.80
2018-06-30T15:01:02.729Z,28.90
2018-06-30T15:06:00.125Z,28.80
2018-06-30T15:08:28.697Z,28.80
2018-06-30T15:10:57.307Z,28.90
2018-06-30T15:13:25.877Z,28.90
2018-06-30T15:15:55.243Z,28.80
2018-06-30T15:18:24.033Z,28.60
2018-06-30T15:20:52.627Z,28.30
2018-06-30T15:23:21.171Z,28.30
2018-06-30T15:25:50.282Z,28.20
2018-06-30T15:28:18.830Z,28.40
2018-06-30T15:30:47.486Z,28.50
2018-06-30T15:33:16.086Z,28.40
2018-06-30T15:35:44.702Z,28.40
2018-06-30T15:38:13.345Z,28.30
2018-06-30T15:40:41.949Z,28.30
2018-06-30T15:43:10.578Z,28.40
2018-06-30T15:45:39.751Z,28.50
2018-06-30T15:48:08.381Z,28.60
2018-06-30T15:50:37.037Z,28.50
2018-06-30T15:53:05.656Z,28.30
2018-06-30T15:58:02.509Z,28.30
2018-06-30T16:00:31.113Z,28.30
2018-06-30T16:05:27.970Z,28.40
2018-06-30T16:07:56.561Z,28.20
2018-06-30T16:12:53.408Z,28.10
2018-06-30T16:15:22.773Z,28.10
2018-06-30T16:17:51.396Z,28.10
2018-06-30T16:20:19.981Z,28.00
2018-06-30T16:22:48.576Z,28.00
2018-06-30T16:27:45.699Z,27.90
2018-06-30T16:30:14.365Z,28.00
2018-06-30T16:32:42.965Z,28.00
2018-06-30T16:35:11.569Z,27.90
2018-06-30T16:37:40.174Z,27.90
2018-06-30T16:45:05.501Z,27.90
2018-06-30T16:47:34.063Z,27.90
2018-06-30T16:50:02.709Z,27.80
2018-06-30T16:52:31.378Z,27.80
2018-06-30T16:57:28.197Z,27.70
2018-06-30T16:59:56.821Z,27.70
2018-06-30T17:04:53.813Z,27.40
2018-06-30T17:07:22.469Z,27.50
2018-06-30T17:09:51.116Z,27.40
2018-06-30T17:12:19.725Z,27.40
2018-06-30T17:14:48.379Z,27.40
2018-06-30T17:17:16.994Z,27.40
2018-06-30T17:19:45.628Z,27.40
2018-06-30T17:22:14.208Z,27.40
2018-06-30T17:24:42.893Z,27.30
2018-06-30T17:27:11.502Z,27.20
2018-06-30T17:29:40.118Z,27.20
2018-06-30T17:32:08.701Z,27.20
2018-06-30T17:34:37.288Z,27.10
2018-06-30T17:37:05.868Z,27.10
2018-06-30T17:39:34.554Z,27.10
2018-06-30T17:42:03.166Z,27.10
2018-06-30T17:44:31.776Z,27.10
2018-06-30T17:47:00.850Z,27.10
2018-06-30T17:51:57.678Z,27.10
2018-06-30T17:54:26.637Z,27.00
2018-06-30T17:56:55.217Z,27.00
2018-06-30T17:59:23.815Z,27.00
2018-06-30T18:01:52.423Z,26.90
2018-06-30T18:04:21.055Z,26.90
2018-06-30T18:09:17.971Z,26.80
2018-06-30T18:11:46.598Z,26.60
2018-06-30T18:16:43.528Z,26.60
2018-06-30T18:19:13.190Z,26.50
2018-06-30T18:21:42.269Z,26.50
2018-06-30T18:26:39.861Z,26.40
2018-06-30T18:29:08.533Z,26.40
2018-06-30T18:34:06.003Z,26.30
2018-06-30T18:41:31.797Z,26.10
2018-06-30T18:44:01.327Z,26.00
2018-06-30T18:46:30.320Z,26.00
2018-06-30T18:48:58.882Z,25.90
2018-06-30T18:51:28.200Z,25.80
2018-06-30T18:53:56.869Z,25.80
2018-06-30T18:56:25.633Z,25.80
2018-06-30T18:58:54.337Z,25.70
2018-06-30T19:01:22.902Z,25.60
2018-06-30T19:03:52.268Z,25.60
2018-06-30T19:06:21.690Z,25.60
2018-06-30T19:13:48.058Z,25.30
2018-06-30T19:18:46.418Z,25.20
2018-06-30T19:21:15.057Z,25.10
2018-06-30T19:23:44.139Z,25.00
2018-06-30T19:33:38.057Z,24.80
2018-06-30T19:36:06.609Z,24.70
2018-06-30T19:38:35.226Z,24.70
2018-06-30T19:41:03.819Z,24.60
2018-06-30T19:46:00.673Z,24.40
2018-06-30T19:48:29.224Z,24.40
2018-06-30T19:50:57.822Z,24.20
2018-06-30T19:53:26.434Z,24.20
2018-06-30T19:58:23.815Z,24.00
2018-06-30T20:03:20.642Z,23.90
2018-06-30T20:05:49.262Z,23.80
2018-06-30T20:08:17.817Z,23.80
2018-06-30T20:10:46.437Z,23.80
2018-06-30T20:13:14.989Z,23.80
2018-06-30T20:15:44.186Z,23.70
2018-06-30T20:18:13.657Z,23.70
2018-06-30T20:20:42.246Z,23.60
2018-06-30T20:23:10.821Z,23.50
2018-06-30T20:25:39.389Z,23.40
2018-06-30T20:28:08.006Z,23.40
2018-06-30T20:30:36.604Z,23.20
2018-06-30T20:33:05.508Z,23.10
2018-06-30T20:35:34.205Z,22.90
2018-06-30T20:40:32.041Z,22.80
2018-06-30T20:43:00.621Z,22.60
2018-06-30T20:45:29.865Z,22.60
2018-06-30T20:47:59.069Z,22.50
2018-06-30T20:50:28.370Z,22.40
2018-06-30T20:52:57.212Z,22.30
2018-06-30T20:55:25.778Z,22.30
2018-06-30T20:57:54.427Z,22.30
2018-06-30T21:00:23.033Z,22.40
2018-06-30T21:05:20.380Z,22.10
2018-06-30T21:10:17.291Z,21.80
2018-06-30T21:12:46.536Z,21.70
2018-06-30T21:15:15.723Z,21.60
2018-06-30T21:17:44.358Z,21.50
2018-06-30T21:20:12.942Z,21.50
2018-06-30T21:22:41.593Z,21.30
2018-06-30T21:25:10.158Z,21.30
2018-06-30T21:27:38.726Z,21.20
2018-06-30T21:30:08.040Z,21.20
2018-06-30T21:32:36.606Z,21.10
2018-06-30T21:35:05.309Z,21.00
2018-06-30T21:37:33.918Z,21.10
2018-06-30T21:40:02.477Z,21.20
2018-06-30T21:42:32.037Z,21.20
2018-06-30T21:45:00.872Z,21.20
2018-06-30T21:47:29.412Z,21.10
2018-06-30T21:49:57.995Z,20.90
2018-06-30T21:54:54.852Z,20.90
2018-06-30T21:59:51.664Z,20.60
2018-06-30T22:02:20.856Z,20.60
2018-06-30T22:04:49.469Z,20.60
2018-06-30T22:07:18.502Z,20.60
2018-06-30T22:12:16.273Z,20.30
2018-06-30T22:14:44.854Z,20.30
2018-06-30T22:22:09.996Z,20.20
2018-06-30T22:24:39.409Z,20.20
2018-06-30T22:29:36.814Z,20.00
2018-06-30T22:32:05.557Z,20.00
2018-06-30T22:34:34.173Z,19.90
2018-06-30T22:37:02.830Z,19.90
2018-06-30T22:39:42.600Z,19.90
2018-06-30T22:42:11.206Z,19.90
2018-06-30T22:44:39.814Z,19.70
2018-06-30T22:47:08.747Z,19.60
2018-06-30T22:49:37.329Z,19.50
2018-06-30T22:54:34.141Z,19.50
2018-06-30T22:57:02.758Z,19.40
2018-06-30T22:59:31.325Z,19.30
2018-06-30T23:01:59.889Z,19.30
2018-06-30T23:04:28.476Z,19.30
2018-06-30T23:06:57.053Z,19.30
2018-06-30T23:09:25.620Z,19.20
2018-06-30T23:11:54.225Z,19.10
2018-06-30T23:14:22.793Z,19.00
2018-06-30T23:16:51.536Z,19.20
2018-06-30T23:19:20.082Z,19.20
2018-06-30T23:21:49.545Z,19.20
2018-06-30T23:26:47.297Z,19.10
2018-06-30T23:29:15.930Z,19.10
2018-06-30T23:31:44.777Z,19.00
2018-06-30T23:34:13.333Z,18.90
2018-06-30T23:36:41.906Z,18.90
2018-06-30T23:39:11.240Z,18.80
2018-06-30T23:41:39.853Z,18.80
2018-06-30T23:46:37.307Z,18.80
2018-06-30T23:49:05.954Z,18.80
2018-06-30T23:51:34.587Z,18.80
2018-06-30T23:54:03.425Z,18.80
2018-06-30T23:56:32.121Z,18.80
2018-06-30T23:59:00.938Z,18.70
